createdAt,value
2018-02-19T00:01:01.303Z,-0.07
2018-02-19T00:03:29.741Z,-0.02
2018-02-19T00:05:58.223Z,0.04
2018-02-19T00:08:26.654Z,0.10
2018-02-19T00:10:55.076Z,0.07
2018-02-19T00:13:23.522Z,0.11
2018-02-19T00:15:51.958Z,0.21
2018-02-19T00:18:20.998Z,0.20
2018-02-19T00:20:49.699Z,0.30
2018-02-19T00:23:18.077Z,0.31
2018-02-19T00:25:46.491Z,0.32
2018-02-19T00:28:14.941Z,0.33
2018-02-19T00:30:43.366Z,0.40
2018-02-19T00:33:11.899Z,0.37
2018-02-19T00:35:40.279Z,0.38
2018-02-19T00:38:08.666Z,0.35
2018-02-19T00:40:37.083Z,0.38
2018-02-19T00:43:05.466Z,0.35
2018-02-19T00:45:34.593Z,0.43
2018-02-19T00:48:03.753Z,0.42
2018-02-19T00:50:32.148Z,0.40
2018-02-19T00:53:00.561Z,0.33
2018-02-19T00:55:28.957Z,0.37
2018-02-19T00:57:57.336Z,0.32
2018-02-19T01:00:25.726Z,0.21
2018-02-19T01:02:54.196Z,0.28
2018-02-19T01:05:22.580Z,0.20
2018-02-19T01:07:51.142Z,0.22
2018-02-19T01:10:19.511Z,0.20
2018-02-19T01:12:47.942Z,0.20
2018-02-19T01:15:16.340Z,0.22
2018-02-19T01:17:44.754Z,0.22
2018-02-19T01:20:13.121Z,0.24
2018-02-19T01:22:42.256Z,0.22
2018-02-19T01:25:10.663Z,0.15
2018-02-19T01:27:39.067Z,0.06
2018-02-19T01:30:08.290Z,0.21
2018-02-19T01:32:36.665Z,0.21
2018-02-19T01:35:05.069Z,0.20
2018-02-19T01:37:33.438Z,0.16
2018-02-19T01:40:01.833Z,0.11
2018-02-19T01:42:30.289Z,0.05
2018-02-19T01:44:58.693Z,0.03
2018-02-19T01:47:27.068Z,-0.01
2018-02-19T01:50:13.215Z,-0.04
2018-02-19T01:52:42.344Z,-0.05
2018-02-19T01:55:10.732Z,-0.06
2018-02-19T01:57:39.101Z,-0.05
2018-02-19T02:00:07.506Z,-0.07
2018-02-19T02:02:35.896Z,-0.09
2018-02-19T02:05:05.881Z,-0.10
2018-02-19T02:07:34.277Z,-0.19
2018-02-19T02:10:02.651Z,-0.21
2018-02-19T02:12:31.048Z,-0.33
2018-02-19T02:14:59.418Z,-0.31
2018-02-19T02:17:28.614Z,-0.44
2018-02-19T02:19:56.990Z,-0.56
2018-02-19T02:22:25.383Z,-0.54
2018-02-19T02:24:53.826Z,-0.61
2018-02-19T02:27:22.298Z,-0.56
2018-02-19T02:29:50.690Z,-0.60
2018-02-19T02:32:19.078Z,-0.59
2018-02-19T02:34:47.597Z,-0.52
2018-02-19T02:37:16.757Z,-0.43
2018-02-19T02:39:45.149Z,-0.36
2018-02-19T02:42:13.567Z,-0.26
2018-02-19T02:44:41.956Z,-0.25
2018-02-19T02:47:10.335Z,-0.28
2018-02-19T02:49:38.735Z,-0.21
2018-02-19T02:52:07.133Z,-0.22
2018-02-19T02:54:35.526Z,-0.17
2018-02-19T02:57:03.925Z,-0.24
2018-02-19T02:59:33.090Z,-0.20
2018-02-19T03:02:01.493Z,-0.21
2018-02-19T03:04:30.666Z,-0.12
2018-02-19T03:06:59.098Z,-0.16
2018-02-19T03:09:27.595Z,-0.08
2018-02-19T03:11:55.964Z,-0.03
2018-02-19T03:14:24.367Z,-0.08
2018-02-19T03:16:52.811Z,-0.11
2018-02-19T03:19:21.971Z,-0.06
2018-02-19T03:21:50.369Z,-0.02
2018-02-19T03:24:18.731Z,-0.02
2018-02-19T03:26:47.146Z,-0.03
2018-02-19T03:29:15.635Z,0.01
2018-02-19T03:31:44.028Z,0.02
2018-02-19T03:34:12.442Z,-0.02
2018-02-19T03:36:40.812Z,0.03
2018-02-19T03:39:09.222Z,-0.05
2018-02-19T03:41:38.368Z,-0.02
2018-02-19T03:44:06.770Z,-0.11
2018-02-19T03:46:35.185Z,-0.19
2018-02-19T03:49:03.586Z,-0.23
2018-02-19T03:51:31.953Z,-0.22
2018-02-19T03:54:00.337Z,-0.30
2018-02-19T03:56:28.726Z,-0.33
2018-02-19T03:58:57.130Z,-0.35
2018-02-19T04:01:25.500Z,-0.40
2018-02-19T04:03:53.891Z,-0.39
2018-02-19T04:06:22.266Z,-0.49
2018-02-19T04:08:50.666Z,-0.46
2018-02-19T04:11:19.058Z,-0.51
2018-02-19T04:13:47.476Z,-0.56
2018-02-19T04:16:15.861Z,-0.53
2018-02-19T04:18:44.264Z,-0.56
2018-02-19T04:21:12.674Z,-0.62
2018-02-19T04:23:41.049Z,-0.58
2018-02-19T04:26:09.430Z,-0.62
2018-02-19T04:28:37.825Z,-0.74
2018-02-19T04:31:07.006Z,-0.84
2018-02-19T04:33:35.412Z,-1.00
2018-02-19T04:36:03.789Z,-1.03
2018-02-19T04:38:32.183Z,-1.02
2018-02-19T04:41:00.575Z,-0.99
2018-02-19T04:43:28.953Z,-0.94
2018-02-19T04:46:03.349Z,-0.92
2018-02-19T04:48:37.034Z,-0.98
2018-02-19T04:51:06.206Z,-0.90
2018-02-19T04:53:34.640Z,-0.88
2018-02-19T04:56:03.117Z,-0.79
2018-02-19T04:58:31.552Z,-0.64
2018-02-19T05:00:59.940Z,-0.66
2018-02-19T05:03:29.197Z,-0.61
2018-02-19T05:05:57.625Z,-0.50
2018-02-19T05:08:26.868Z,-0.42
2018-02-19T05:10:55.259Z,-0.40
2018-02-19T05:13:23.671Z,-0.39
2018-02-19T05:15:52.049Z,-0.28
2018-02-19T05:18:20.412Z,-0.35
2018-02-19T05:20:48.828Z,-0.29
2018-02-19T05:23:18.062Z,-0.30
2018-02-19T05:25:46.479Z,-0.25
2018-02-19T05:28:14.894Z,-0.34
2018-02-19T05:30:43.261Z,-0.32
2018-02-19T05:33:12.418Z,-0.36
2018-02-19T05:35:40.816Z,-0.27
2018-02-19T05:38:09.953Z,-0.34
2018-02-19T05:40:38.351Z,-0.26
2018-02-19T05:43:06.787Z,-0.28
2018-02-19T05:45:35.945Z,-0.29
2018-02-19T05:48:04.303Z,-0.28
2018-02-19T05:50:32.680Z,-0.41
2018-02-19T05:53:01.087Z,-0.29
2018-02-19T05:55:29.462Z,-0.21
2018-02-19T05:57:57.842Z,-0.43
2018-02-19T06:00:26.259Z,-0.64
2018-02-19T06:02:55.417Z,-0.64
2018-02-19T06:05:23.797Z,-0.62
2018-02-19T06:07:52.172Z,-0.62
2018-02-19T06:10:20.565Z,-0.59
2018-02-19T06:12:48.969Z,-0.59
2018-02-19T06:15:18.121Z,-0.55
2018-02-19T06:17:46.584Z,-0.48
2018-02-19T06:20:15.006Z,-0.41
2018-02-19T06:22:43.383Z,-0.35
2018-02-19T06:25:11.757Z,-0.37
2018-02-19T06:27:40.165Z,-0.43
2018-02-19T06:30:09.318Z,-0.40
2018-02-19T06:32:37.715Z,-0.31
2018-02-19T06:35:06.089Z,-0.33
2018-02-19T06:37:34.474Z,-0.26
2018-02-19T06:40:02.877Z,-0.19
2018-02-19T06:42:31.311Z,-0.21
2018-02-19T06:44:59.682Z,-0.09
2018-02-19T06:47:28.037Z,0.06
2018-02-19T06:49:56.436Z,0.03
2018-02-19T06:52:24.816Z,-0.04
2018-02-19T06:54:53.232Z,0.09
2018-02-19T06:57:22.423Z,0.14
2018-02-19T06:59:50.819Z,0.14
2018-02-19T07:02:20.012Z,0.33
2018-02-19T07:04:49.192Z,0.45
2018-02-19T07:07:17.565Z,0.32
2018-02-19T07:09:45.954Z,0.41
2018-02-19T07:12:15.122Z,0.43
2018-02-19T07:14:43.510Z,0.53
2018-02-19T07:17:11.904Z,0.61
2018-02-19T07:19:40.266Z,0.57
2018-02-19T07:22:08.670Z,0.77
2018-02-19T07:24:37.830Z,0.85
2018-02-19T07:27:06.209Z,0.80
2018-02-19T07:29:34.600Z,0.89
2018-02-19T07:32:02.981Z,0.86
2018-02-19T07:34:31.389Z,1.06
2018-02-19T07:37:00.518Z,1.10
2018-02-19T07:39:28.892Z,1.21
2018-02-19T07:41:57.284Z,1.21
2018-02-19T07:44:25.672Z,1.32
2018-02-19T07:46:54.085Z,1.38
2018-02-19T07:49:22.477Z,1.54
2018-02-19T07:51:51.619Z,1.64
2018-02-19T07:54:20.024Z,1.73
2018-02-19T07:56:48.470Z,1.70
2018-02-19T07:59:16.853Z,1.69
2018-02-19T08:01:45.269Z,1.82
2018-02-19T08:04:13.660Z,2.09
2018-02-19T08:06:42.802Z,2.05
2018-02-19T08:09:11.203Z,2.48
2018-02-19T08:11:39.666Z,2.72
2018-02-19T08:14:08.061Z,3.02
2018-02-19T08:16:36.450Z,2.77
2018-02-19T08:19:04.837Z,2.94
2018-02-19T08:21:33.237Z,2.74
2018-02-19T08:24:02.398Z,2.80
2018-02-19T08:26:30.775Z,2.55
2018-02-19T08:28:59.158Z,2.74
2018-02-19T08:31:27.587Z,2.60
2018-02-19T08:33:55.955Z,2.70
2018-02-19T08:36:25.097Z,2.85
2018-02-19T08:38:53.533Z,2.98
2018-02-19T08:41:21.890Z,2.94
2018-02-19T08:43:50.290Z,2.85
2018-02-19T08:46:18.801Z,3.13
2018-02-19T08:48:47.205Z,3.50
2018-02-19T08:51:15.590Z,3.44
2018-02-19T08:53:44.020Z,3.65
2018-02-19T08:56:12.406Z,3.91
2018-02-19T08:58:40.786Z,4.21
2018-02-19T09:01:09.173Z,4.26
2018-02-19T09:03:37.541Z,4.03
2018-02-19T09:06:05.947Z,3.90
2018-02-19T09:08:34.316Z,4.56
2018-02-19T09:11:02.688Z,4.57
2018-02-19T09:13:31.078Z,4.75
2018-02-19T09:15:59.461Z,5.12
2018-02-19T09:18:27.861Z,4.93
2018-02-19T09:20:56.236Z,5.15
2018-02-19T09:23:24.648Z,4.68
2018-02-19T09:25:53.778Z,5.06
2018-02-19T09:28:22.177Z,5.16
2018-02-19T09:30:50.558Z,5.65
2018-02-19T09:33:18.948Z,5.36
2018-02-19T09:35:47.362Z,4.96
2018-02-19T09:38:15.740Z,5.78
2018-02-19T09:40:44.121Z,5.84
2018-02-19T09:43:12.642Z,6.43
2018-02-19T09:45:41.063Z,5.83
2018-02-19T09:48:10.194Z,6.17
2018-02-19T09:50:38.574Z,6.23
2018-02-19T09:53:06.966Z,6.29
2018-02-19T09:55:35.335Z,7.03
2018-02-19T09:58:03.733Z,6.74
2018-02-19T10:00:32.127Z,5.80
2018-02-19T10:03:00.546Z,6.42
2018-02-19T10:05:29.712Z,6.39
2018-02-19T10:07:58.045Z,6.66
2018-02-19T10:10:26.448Z,6.75
2018-02-19T10:12:54.902Z,6.58
2018-02-19T10:15:23.256Z,6.56
2018-02-19T10:17:52.429Z,6.47
2018-02-19T10:20:20.793Z,6.31
2018-02-19T10:22:49.245Z,6.24
2018-02-19T10:25:17.645Z,6.25
2018-02-19T10:27:46.024Z,5.74
2018-02-19T10:30:14.389Z,6.04
2018-02-19T10:35:17.387Z,6.00
2018-02-19T10:37:45.766Z,6.01
2018-02-19T10:40:14.141Z,6.35
2018-02-19T10:42:42.607Z,6.99
2018-02-19T10:45:11.008Z,6.43
2018-02-19T10:47:39.382Z,6.25
2018-02-19T10:50:07.784Z,6.25
2018-02-19T10:52:36.162Z,6.47
2018-02-19T10:55:04.541Z,6.80
2018-02-19T10:57:33.722Z,6.50
2018-02-19T11:00:02.141Z,6.52
2018-02-19T11:02:30.499Z,6.97
2018-02-19T11:04:58.891Z,6.19
2018-02-19T11:07:27.249Z,6.13
2018-02-19T11:09:55.643Z,6.39
2018-02-19T11:12:24.085Z,6.54
2018-02-19T11:14:52.463Z,6.51
2018-02-19T11:17:20.865Z,6.70
2018-02-19T11:19:49.232Z,6.28
2018-02-19T11:22:17.652Z,6.66
2018-02-19T11:24:46.834Z,6.63
2018-02-19T11:27:15.985Z,6.58
2018-02-19T11:29:44.374Z,6.89
2018-02-19T11:32:12.788Z,6.91
2018-02-19T11:34:41.944Z,7.06
2018-02-19T11:37:10.322Z,6.83
2018-02-19T11:39:38.715Z,7.02
2018-02-19T11:42:07.095Z,6.96
2018-02-19T11:44:35.476Z,6.97
2018-02-19T11:47:03.866Z,6.73
2018-02-19T11:49:32.321Z,7.01
2018-02-19T11:52:00.697Z,7.22
2018-02-19T11:54:29.075Z,7.63
2018-02-19T11:56:57.473Z,7.25
2018-02-19T11:59:25.851Z,6.98
2018-02-19T12:01:54.222Z,6.92
2018-02-19T12:04:22.652Z,7.07
2018-02-19T12:06:51.800Z,7.09
2018-02-19T12:09:20.186Z,6.83
2018-02-19T12:11:48.605Z,6.80
2018-02-19T12:14:17.720Z,7.42
2018-02-19T12:16:46.095Z,7.30
2018-02-19T12:19:14.478Z,7.57
2018-02-19T12:21:42.846Z,6.82
2018-02-19T12:24:11.233Z,6.80
2018-02-19T12:26:39.608Z,7.17
2018-02-19T12:29:08.098Z,7.14
2018-02-19T12:31:36.477Z,7.53
2018-02-19T12:34:04.870Z,7.30
2018-02-19T12:36:33.338Z,7.65
2018-02-19T12:39:01.731Z,7.63
2018-02-19T12:41:30.094Z,7.48
2018-02-19T12:43:58.471Z,7.87
2018-02-19T12:46:26.874Z,7.75
2018-02-19T12:48:56.017Z,7.26
2018-02-19T12:51:25.141Z,7.44
2018-02-19T12:53:53.581Z,7.13
2018-02-19T12:56:22.007Z,7.50
2018-02-19T12:58:50.401Z,7.77
2018-02-19T13:01:18.765Z,7.01
2018-02-19T13:06:44.266Z,7.37
2018-02-19T13:09:12.654Z,7.57
2018-02-19T13:18:52.702Z,7.70
2018-02-19T13:21:21.154Z,7.90
2018-02-19T13:23:49.566Z,7.83
2018-02-19T13:26:17.996Z,7.92
2018-02-19T13:28:46.414Z,8.04
2018-02-19T13:31:14.793Z,7.48
2018-02-19T13:33:43.203Z,7.49
2018-02-19T13:36:12.453Z,7.63
2018-02-19T13:38:40.841Z,7.41
2018-02-19T13:41:09.254Z,7.36
2018-02-19T13:43:39.043Z,7.26
2018-02-19T13:46:07.447Z,7.16
2018-02-19T13:48:35.834Z,7.26
2018-02-19T13:51:04.986Z,7.17
2018-02-19T13:53:33.365Z,6.90
2018-02-19T13:56:01.756Z,6.88
2018-02-19T13:58:30.169Z,6.82
2018-02-19T14:00:59.305Z,6.79
2018-02-19T14:03:27.668Z,6.88
2018-02-19T14:05:56.481Z,6.59
2018-02-19T14:08:24.871Z,6.32
2018-02-19T14:10:54.045Z,6.44
2018-02-19T14:13:22.414Z,6.60
2018-02-19T14:15:50.807Z,6.33
2018-02-19T14:18:19.535Z,6.83
2018-02-19T14:20:48.713Z,7.14
2018-02-19T14:23:17.137Z,7.89
2018-02-19T14:25:46.288Z,8.25
2018-02-19T14:28:14.667Z,8.09
2018-02-19T14:30:43.081Z,7.78
2018-02-19T14:33:12.476Z,8.17
2018-02-19T14:35:40.969Z,8.28
2018-02-19T14:38:09.379Z,7.70
2018-02-19T14:40:38.861Z,7.90
2018-02-19T14:43:08.323Z,7.53
2018-02-19T14:45:36.954Z,7.70
2018-02-19T14:48:05.532Z,7.41
2018-02-19T14:50:34.767Z,7.27
2018-02-19T14:53:03.273Z,7.18
2018-02-19T14:55:31.727Z,7.21
2018-02-19T14:58:00.179Z,7.18
2018-02-19T15:00:28.606Z,7.15
2018-02-19T15:02:56.979Z,7.10
2018-02-19T15:05:25.358Z,6.74
2018-02-19T15:07:53.822Z,6.98
2018-02-19T15:10:22.320Z,6.77
2018-02-19T15:12:50.704Z,6.61
2018-02-19T15:15:19.155Z,6.77
2018-02-19T15:17:47.546Z,6.71
2018-02-19T15:20:15.914Z,6.63
2018-02-19T15:22:44.293Z,6.56
2018-02-19T15:25:12.671Z,6.44
2018-02-19T15:27:41.070Z,6.37
2018-02-19T15:30:09.597Z,6.05
2018-02-19T15:32:38.756Z,6.06
2018-02-19T15:35:07.174Z,6.01
2018-02-19T15:37:36.344Z,5.92
2018-02-19T15:40:04.707Z,5.93
2018-02-19T15:42:33.160Z,5.82
2018-02-19T15:45:01.540Z,5.80
2018-02-19T15:47:29.917Z,5.72
2018-02-19T15:49:58.336Z,5.65
2018-02-19T15:52:26.706Z,5.56
2018-02-19T15:54:55.070Z,5.58
2018-02-19T15:57:23.449Z,5.55
2018-02-19T15:59:51.817Z,5.48
2018-02-19T16:02:20.206Z,5.32
2018-02-19T16:04:48.584Z,5.35
2018-02-19T16:07:16.965Z,5.33
2018-02-19T16:09:45.437Z,5.20
2018-02-19T16:12:13.799Z,5.25
2018-02-19T16:14:42.168Z,5.21
2018-02-19T16:17:10.566Z,5.23
2018-02-19T16:19:38.940Z,5.19
2018-02-19T16:22:07.391Z,5.07
2018-02-19T16:24:35.790Z,5.05
2018-02-19T16:27:04.162Z,4.92
2018-02-19T16:29:32.556Z,4.96
2018-02-19T16:32:01.024Z,4.87
2018-02-19T16:34:29.425Z,4.77
2018-02-19T16:36:57.814Z,4.67
2018-02-19T16:39:26.261Z,4.57
2018-02-19T16:41:54.656Z,4.49
2018-02-19T16:44:23.038Z,4.38
2018-02-19T16:46:51.417Z,4.39
2018-02-19T16:49:19.786Z,4.31
2018-02-19T16:51:48.185Z,4.25
2018-02-19T16:54:16.639Z,4.15
2018-02-19T16:56:45.009Z,4.03
2018-02-19T16:59:13.499Z,3.99
2018-02-19T17:01:41.869Z,3.98
2018-02-19T17:04:10.322Z,3.83
2018-02-19T17:06:39.466Z,3.66
2018-02-19T17:09:07.832Z,3.50
2018-02-19T17:11:36.264Z,3.35
2018-02-19T17:14:04.678Z,3.23
2018-02-19T17:16:33.066Z,3.12
2018-02-19T17:19:01.451Z,3.01
2018-02-19T17:21:29.859Z,2.97
2018-02-19T17:23:58.225Z,2.89
2018-02-19T17:26:26.602Z,2.81
2018-02-19T17:28:55.069Z,2.78
2018-02-19T17:31:23.448Z,2.72
2018-02-19T17:33:51.833Z,2.68
2018-02-19T17:36:20.212Z,2.54
2018-02-19T17:38:48.590Z,2.42
2018-02-19T17:41:16.967Z,2.32
2018-02-19T17:43:45.346Z,2.24
2018-02-19T17:46:13.740Z,2.24
2018-02-19T17:48:42.140Z,2.17
2018-02-19T17:51:10.516Z,2.08
2018-02-19T17:53:38.909Z,1.92
2018-02-19T17:56:08.065Z,1.85
2018-02-19T17:58:36.436Z,1.72
2018-02-19T18:01:04.825Z,1.64
2018-02-19T18:03:33.220Z,1.65
2018-02-19T18:06:01.590Z,1.62
2018-02-19T18:08:30.050Z,1.58
2018-02-19T18:10:58.439Z,1.52
2018-02-19T18:13:26.804Z,1.48
2018-02-19T18:15:55.180Z,1.42
2018-02-19T18:18:23.550Z,1.39
2018-02-19T18:20:51.935Z,1.42
2018-02-19T18:23:20.325Z,1.41
2018-02-19T18:25:48.773Z,1.37
2018-02-19T18:28:17.158Z,1.32
2018-02-19T18:30:45.538Z,1.27
2018-02-19T18:33:14.021Z,1.26
2018-02-19T18:35:42.406Z,1.29
2018-02-19T18:38:10.775Z,1.27
2018-02-19T18:40:39.280Z,1.28
2018-02-19T18:43:07.637Z,1.28
2018-02-19T18:45:36.010Z,1.25
2018-02-19T18:48:04.389Z,1.20
2018-02-19T18:50:32.752Z,1.25
2018-02-19T18:53:01.969Z,1.27
2018-02-19T18:55:30.337Z,1.28
2018-02-19T18:57:58.700Z,1.32
2018-02-19T19:00:27.838Z,1.36
2018-02-19T19:02:56.218Z,1.34
2018-02-19T19:05:24.601Z,1.35
2018-02-19T19:08:10.982Z,1.35
2018-02-19T19:10:52.802Z,1.58
2018-02-19T19:13:21.223Z,1.69
2018-02-19T19:15:49.659Z,1.69
2018-02-19T19:18:18.061Z,1.70
2018-02-19T19:20:46.434Z,1.65
2018-02-19T19:23:15.606Z,1.63
2018-02-19T19:25:44.017Z,1.60
2018-02-19T19:28:12.386Z,1.58
2018-02-19T19:30:40.765Z,1.56
2018-02-19T19:33:09.148Z,1.50
2018-02-19T19:35:37.547Z,1.48
2018-02-19T19:38:06.685Z,1.49
2018-02-19T19:40:35.049Z,1.46
2018-02-19T19:43:03.475Z,1.45
2018-02-19T19:45:31.854Z,1.42
2018-02-19T19:48:00.221Z,1.40
2018-02-19T19:50:28.611Z,1.39
2018-02-19T19:52:56.999Z,1.38
2018-02-19T19:55:25.375Z,1.38
2018-02-19T19:57:53.810Z,1.34
2018-02-19T20:00:22.369Z,1.31
2018-02-19T20:02:50.744Z,1.29
2018-02-19T20:05:19.934Z,1.25
2018-02-19T20:07:49.130Z,1.21
2018-02-19T20:10:17.525Z,1.18
2018-02-19T20:12:45.985Z,1.18
2018-02-19T20:15:15.121Z,1.11
2018-02-19T20:17:43.618Z,1.06
2018-02-19T20:20:12.010Z,0.97
2018-02-19T20:22:40.439Z,0.94
2018-02-19T20:25:08.822Z,0.86
2018-02-19T20:27:37.246Z,0.80
2018-02-19T20:30:05.680Z,0.79
2018-02-19T20:32:34.049Z,0.83
2018-02-19T20:35:02.472Z,0.84
2018-02-19T20:37:30.880Z,0.93
2018-02-19T20:39:59.503Z,0.90
2018-02-19T20:42:28.260Z,0.87
2018-02-19T20:44:56.718Z,0.92
2018-02-19T20:47:25.625Z,0.88
2018-02-19T20:49:54.014Z,0.93
2018-02-19T20:52:23.164Z,0.92
2018-02-19T20:54:51.623Z,0.94
2018-02-19T20:57:20.110Z,0.99
2018-02-19T20:59:48.486Z,1.12
2018-02-19T21:02:16.856Z,1.20
2018-02-19T21:04:45.241Z,1.24
2018-02-19T21:07:13.646Z,1.21
2018-02-19T21:09:42.041Z,1.15
2018-02-19T21:12:10.438Z,1.17
2018-02-19T21:14:38.808Z,1.12
2018-02-19T21:17:07.239Z,1.08
2018-02-19T21:19:35.618Z,1.01
2018-02-19T21:22:03.987Z,0.97
2018-02-19T21:24:32.390Z,1.02
2018-02-19T21:27:00.857Z,1.03
2018-02-19T21:29:29.234Z,1.02
2018-02-19T21:31:57.738Z,1.02
2018-02-19T21:34:26.149Z,0.98
2018-02-19T21:36:54.617Z,1.00
2018-02-19T21:39:23.254Z,1.02
2018-02-19T21:41:51.649Z,1.02
2018-02-19T21:44:20.042Z,0.90
2018-02-19T21:46:48.461Z,0.96
2018-02-19T21:49:17.732Z,0.92
2018-02-19T21:51:46.100Z,0.88
2018-02-19T21:54:14.517Z,0.87
2018-02-19T21:56:43.732Z,0.79
2018-02-19T21:59:12.974Z,0.85
2018-02-19T22:01:41.935Z,0.87
2018-02-19T22:04:10.305Z,0.90
2018-02-19T22:06:38.698Z,0.72
2018-02-19T22:09:07.091Z,0.56
2018-02-19T22:11:35.493Z,0.54
2018-02-19T22:14:03.860Z,0.43
2018-02-19T22:16:32.226Z,0.31
2018-02-19T22:19:00.635Z,0.35
2018-02-19T22:21:29.744Z,0.38
2018-02-19T22:23:58.159Z,0.38
2018-02-19T22:26:26.661Z,0.36
2018-02-19T22:28:55.046Z,0.36
2018-02-19T22:31:23.464Z,0.42
2018-02-19T22:33:52.614Z,0.43
2018-02-19T22:36:21.018Z,0.50
2018-02-19T22:38:49.409Z,0.52
2018-02-19T22:41:17.805Z,0.53
2018-02-19T22:43:46.955Z,0.55
2018-02-19T22:46:15.392Z,0.57
2018-02-19T22:48:44.497Z,0.52
2018-02-19T22:51:12.988Z,0.47
2018-02-19T22:53:41.579Z,0.54
2018-02-19T22:56:10.022Z,0.53
2018-02-19T22:58:39.324Z,0.47
2018-02-19T23:01:08.478Z,0.47
2018-02-19T23:03:36.875Z,0.44
2018-02-19T23:06:05.297Z,0.41
2018-02-19T23:08:33.713Z,0.31
2018-02-19T23:11:02.091Z,0.20
2018-02-19T23:13:30.471Z,0.22
2018-02-19T23:15:58.893Z,0.24
2018-02-19T23:18:28.030Z,0.22
2018-02-19T23:20:56.397Z,0.28
2018-02-19T23:23:24.796Z,0.30
2018-02-19T23:25:53.258Z,0.20
2018-02-19T23:28:21.630Z,0.17
2018-02-19T23:30:50.037Z,0.14
2018-02-19T23:33:18.431Z,0.12
2018-02-19T23:35:46.809Z,0.16
2018-02-19T23:38:15.193Z,0.11
2018-02-19T23:40:43.562Z,0.04
2018-02-19T23:43:11.998Z,0.04
2018-02-19T23:45:40.381Z,0.06
2018-02-19T23:48:08.774Z,0.01
2018-02-19T23:50:37.184Z,-0.04
2018-02-19T23:53:05.576Z,-0.19
2018-02-19T23:55:33.966Z,-0.19
2018-02-19T23:58:03.140Z,-0.13
